Time;durP1;ratioP1;P1;durP2;ratioP2;P2;SDS_P1;SDS_P2;PMS_P1;PMS_P2;Temp;Humidity;BMP_temperature;BMP_pressure;BME280_temperature;BME280_humidity;BME280_pressure;Samples;Min_cycle;Max_cycle;Signal;HPM_P1;HPM_P2
2023/03/31 00:00:37;;;;;;;12.38;3.40;;;17.50;52.90;;;;;;5983631;29;20062;-70
2023/03/31 00:03:42;;;;;;;12.10;3.60;;;17.50;52.90;;;;;;5982902;29;20036;-70
2023/03/31 00:06:44;;;;;;;11.10;3.50;;;17.50;52.90;;;;;;5982753;29;20483;-69
2023/03/31 00:09:44;;;;;;;8.45;3.72;;;17.50;52.90;;;;;;5982343;29;20037;-70
2023/03/31 00:12:45;;;;;;;8.30;3.08;;;17.50;53.10;;;;;;6001722;29;20026;-69
2023/03/31 00:15:46;;;;;;;9.38;3.78;;;17.40;53.10;;;;;;6004688;29;20065;-70
2023/03/31 00:18:49;;;;;;;15.00;3.50;;;17.40;53.10;;;;;;6004997;29;20053;-70
2023/03/31 00:21:50;;;;;;;11.25;4.13;;;17.50;53.10;;;;;;6005063;29;20041;-70
2023/03/31 00:24:51;;;;;;;11.50;4.25;;;17.50;53.20;;;;;;6005268;29;20034;-70
2023/03/31 00:27:52;;;;;;;14.73;4.45;;;17.50;53.10;;;;;;6004625;29;20140;-69
2023/03/31 00:30:58;;;;;;;14.80;3.65;;;17.50;53.10;;;;;;6005082;29;20037;-69
2023/03/31 00:34:00;;;;;;;7.83;3.70;;;17.60;53.10;;;;;;6003176;29;20030;-69
2023/03/31 00:37:02;;;;;;;9.85;3.90;;;17.60;53.10;;;;;;6003021;29;20372;-69
2023/03/31 00:40:08;;;;;;;6.28;3.88;;;17.60;53.20;;;;;;5959254;29;20134;-70
2023/03/31 00:43:24;;;;;;;10.93;3.58;;;17.60;53.20;;;;;;5959516;29;20087;-69
2023/03/31 00:46:44;;;;;;;12.05;4.47;;;17.60;53.10;;;;;;5957772;29;20357;-70
2023/03/31 00:49:55;;;;;;;14.30;3.78;;;17.60;53.10;;;;;;5966571;29;20031;-70
2023/03/31 00:53:17;;;;;;;9.18;3.47;;;17.60;53.20;;;;;;5988322;29;20034;-70
2023/03/31 00:56:18;;;;;;;13.32;3.95;;;17.60;53.20;;;;;;5999978;29;20034;-70
2023/03/31 00:59:22;;;;;;;15.85;3.42;;;17.60;53.10;;;;;;5980403;29;20360;-70
2023/03/31 01:02:24;;;;;;;6.20;2.95;;;17.60;53.20;;;;;;5981716;29;20061;-69
2023/03/31 01:05:31;;;;;;;14.85;3.72;;;17.60;53.30;;;;;;6010803;29;20136;-70
2023/03/31 01:08:35;;;;;;;12.50;3.45;;;17.50;53.40;;;;;;6010375;29;20125;-69
2023/03/31 01:11:36;;;;;;;19.08;3.75;;;17.40;53.60;;;;;;6020875;29;20061;-70
2023/03/31 01:14:37;;;;;;;7.90;3.45;;;17.30;53.70;;;;;;6002744;29;20030;-70
2023/03/31 01:17:43;;;;;;;8.13;3.22;;;17.20;53.90;;;;;;6033598;29;20042;-71
2023/03/31 01:21:09;;;;;;;9.23;2.78;;;17.20;54.10;;;;;;6009992;29;20400;-69
2023/03/31 01:24:34;;;;;;;9.93;3.05;;;17.20;54.30;;;;;;5979988;29;20109;-70
2023/03/31 01:28:13;;;;;;;12.57;3.30;;;17.20;54.80;;;;;;5982966;29;20037;-70
2023/03/31 01:31:16;;;;;;;9.10;3.08;;;17.20;54.20;;;;;;5984364;29;20026;-69
2023/03/31 01:34:29;;;;;;;11.07;3.28;;;17.30;54.20;;;;;;5985138;29;20131;-70
2023/03/31 01:38:08;;;;;;;9.52;2.90;;;17.30;54.10;;;;;;5987704;29;20470;-70
2023/03/31 01:41:25;;;;;;;9.43;2.80;;;17.30;54.10;;;;;;6007156;29;20127;-71
2023/03/31 01:44:44;;;;;;;12.15;3.75;;;17.30;54.20;;;;;;6002662;29;20114;-70
2023/03/31 01:47:59;;;;;;;7.50;3.70;;;17.20;54.40;;;;;;6014378;29;20137;-70
2023/03/31 01:51:07;;;;;;;7.13;3.55;;;17.10;54.70;;;;;;5999486;29;20026;-70
2023/03/31 01:54:38;;;;;;;10.38;3.97;;;17.10;54.80;;;;;;5999131;29;20521;-71
2023/03/31 01:57:44;;;;;;;8.05;3.70;;;17.00;54.90;;;;;;6014225;29;20034;-69
2023/03/31 02:00:55;;;;;;;8.95;3.60;;;17.00;54.90;;;;;;5985050;29;20046;-69
2023/03/31 02:04:06;;;;;;;12.73;3.20;;;17.10;54.90;;;;;;6013899;29;20037;-69
2023/03/31 02:07:25;;;;;;;12.20;3.55;;;17.10;55.50;;;;;;5998491;29;20026;-71
2023/03/31 02:10:30;;;;;;;11.45;3.97;;;17.10;54.90;;;;;;6016277;29;20026;-70
2023/03/31 02:13:36;;;;;;;10.55;3.95;;;17.10;54.90;;;;;;6007693;29;20105;-70
2023/03/31 02:16:46;;;;;;;10.20;3.97;;;17.20;54.90;;;;;;6007847;29;20030;-71
2023/03/31 02:19:52;;;;;;;13.38;3.58;;;17.20;54.90;;;;;;6007364;29;20082;-70
2023/03/31 02:22:55;;;;;;;15.27;4.45;;;17.20;54.80;;;;;;6007797;29;20140;-70
2023/03/31 02:26:10;;;;;;;9.25;3.88;;;17.20;54.70;;;;;;6006022;29;20041;-69
2023/03/31 02:29:11;;;;;;;11.82;3.40;;;17.30;54.70;;;;;;5990718;29;20093;-70
2023/03/31 02:32:26;;;;;;;12.57;3.42;;;17.30;54.60;;;;;;6005505;29;20030;-70
2023/03/31 02:35:27;;;;;;;21.27;4.47;;;17.40;54.60;;;;;;6036688;29;20090;-70
2023/03/31 02:38:38;;;;;;;20.20;4.32;;;17.50;54.70;;;;;;6023868;29;20048;-69
2023/03/31 02:41:39;;;;;;;10.05;3.55;;;17.50;54.70;;;;;;5982948;29;20479;-70
2023/03/31 02:44:40;;;;;;;10.95;3.28;;;17.50;54.70;;;;;;5977172;29;20034;-70
2023/03/31 02:47:41;;;;;;;13.48;3.72;;;17.50;54.70;;;;;;5990521;29;20465;-69
2023/03/31 02:51:07;;;;;;;12.80;3.92;;;17.60;54.70;;;;;;5975178;29;20396;-70
2023/03/31 02:54:35;;;;;;;7.80;3.22;;;17.60;54.80;;;;;;5990627;29;20486;-70
2023/03/31 02:57:42;;;;;;;6.68;2.60;;;17.60;54.80;;;;;;6011462;29;20026;-70
2023/03/31 03:01:06;;;;;;;14.73;3.42;;;17.60;54.70;;;;;;6013000;29;20043;-69
2023/03/31 03:04:32;;;;;;;12.43;3.33;;;17.60;54.80;;;;;;6012766;29;20034;-70
2023/03/31 03:07:46;;;;;;;9.85;3.28;;;17.60;54.70;;;;;;6014289;29;20391;-70
2023/03/31 03:10:53;;;;;;;9.15;3.45;;;17.60;54.80;;;;;;6002568;29;20768;-70
2023/03/31 03:14:20;;;;;;;9.88;3.70;;;17.70;54.70;;;;;;6005284;29;20057;-70
2023/03/31 03:17:31;;;;;;;9.70;4.00;;;17.70;54.70;;;;;;6033946;29;20091;-70
2023/03/31 03:20:32;;;;;;;10.55;3.95;;;17.70;54.60;;;;;;6035914;29;20041;-69
2023/03/31 03:23:33;;;;;;;10.35;3.92;;;17.70;54.50;;;;;;6006644;29;20038;-69
2023/03/31 03:26:34;;;;;;;24.10;4.65;;;17.70;54.50;;;;;;6006550;29;20041;-69
2023/03/31 03:29:35;;;;;;;8.85;3.90;;;17.70;54.40;;;;;;6035461;29;20037;-71
2023/03/31 03:32:36;;;;;;;12.70;3.80;;;17.70;54.40;;;;;;6006213;29;20034;-70
2023/03/31 03:35:37;;;;;;;11.98;3.55;;;17.80;54.40;;;;;;6004738;29;20033;-70
2023/03/31 03:38:38;;;;;;;8.75;3.38;;;17.80;54.40;;;;;;5998446;29;20105;-70
2023/03/31 03:41:38;;;;;;;18.35;3.90;;;17.70;54.40;;;;;;6004782;29;20106;-70
2023/03/31 03:44:39;;;;;;;15.35;4.10;;;17.70;54.50;;;;;;5998533;29;20112;-70
2023/03/31 03:47:40;;;;;;;17.05;3.90;;;17.60;54.50;;;;;;5983134;29;20103;-70
2023/03/31 03:50:41;;;;;;;6.93;3.42;;;17.50;54.60;;;;;;6011341;29;20488;-71
2023/03/31 03:53:42;;;;;;;11.32;3.72;;;17.40;54.90;;;;;;5983325;29;20030;-70
2023/03/31 03:56:43;;;;;;;14.60;3.63;;;17.40;55.10;;;;;;5983112;29;20034;-69
2023/03/31 03:59:44;;;;;;;8.65;3.28;;;17.30;55.10;;;;;;5983271;29;20034;-70
2023/03/31 04:02:45;;;;;;;8.90;3.03;;;17.30;55.20;;;;;;5982929;29;20031;-71
2023/03/31 04:05:50;;;;;;;11.30;2.95;;;17.30;55.40;;;;;;5983002;29;20318;-70
2023/03/31 04:08:51;;;;;;;7.10;3.55;;;17.20;55.40;;;;;;5980912;29;20058;-70
2023/03/31 04:11:52;;;;;;;15.13;3.47;;;17.30;55.30;;;;;;5993593;29;20036;-70
2023/03/31 04:14:53;;;;;;;9.18;3.15;;;17.30;55.30;;;;;;6034392;29;20224;-70
2023/03/31 04:17:56;;;;;;;7.93;2.85;;;17.30;55.30;;;;;;6003489;29;20034;-70
2023/03/31 04:21:03;;;;;;;12.50;4.00;;;17.30;55.20;;;;;;6003557;29;20223;-71
2023/03/31 04:24:04;;;;;;;12.25;3.05;;;17.30;55.30;;;;;;6003563;29;20037;-69
2023/03/31 04:27:09;;;;;;;17.77;3.40;;;17.30;55.40;;;;;;6004833;29;20037;-70
2023/03/31 04:30:10;;;;;;;7.57;2.92;;;17.30;55.50;;;;;;6003750;29;20582;-69
2023/03/31 04:33:14;;;;;;;10.00;3.55;;;17.20;55.50;;;;;;5999987;29;20038;-70
2023/03/31 04:36:18;;;;;;;11.90;3.40;;;17.20;55.60;;;;;;5982683;29;20065;-69
2023/03/31 04:39:25;;;;;;;13.52;3.38;;;17.20;55.70;;;;;;5999803;29;20367;-69
2023/03/31 04:42:26;;;;;;;9.47;2.90;;;17.20;55.70;;;;;;6004449;29;20034;-71
2023/03/31 04:45:27;;;;;;;13.88;2.63;;;17.20;55.70;;;;;;5991446;29;20049;-69
2023/03/31 04:48:28;;;;;;;7.30;3.15;;;17.30;55.70;;;;;;6010511;29;20062;-71
2023/03/31 04:51:29;;;;;;;13.23;3.83;;;17.30;55.60;;;;;;5982100;29;20483;-72
2023/03/31 04:54:29;;;;;;;9.98;3.60;;;17.30;55.50;;;;;;5982262;29;20030;-70
2023/03/31 04:57:30;;;;;;;10.98;3.85;;;17.30;55.40;;;;;;5981964;29;20350;-70
2023/03/31 05:00:31;;;;;;;13.80;3.58;;;17.30;55.30;;;;;;5981806;29;20129;-70
2023/03/31 05:03:33;;;;;;;5.50;1.60;;;17.30;55.20;;;;;;5980786;29;20066;-69
2023/03/31 05:06:34;;;;;;;6.97;2.63;;;17.40;55.00;;;;;;5981929;29;20030;-69
2023/03/31 05:09:34;;;;;;;6.70;2.00;;;17.40;54.70;;;;;;6010604;29;20127;-69
2023/03/31 05:12:36;;;;;;;16.00;2.20;;;17.30;54.50;;;;;;5999345;29;20037;-70
2023/03/31 05:15:38;;;;;;;9.45;2.40;;;17.30;54.20;;;;;;6033679;29;20026;-70
2023/03/31 05:18:40;;;;;;;12.98;1.75;;;17.30;53.90;;;;;;6002881;29;20502;-71
2023/03/31 05:21:40;;;;;;;4.63;1.80;;;17.30;53.90;;;;;;6004229;29;20118;-69
2023/03/31 05:24:41;;;;;;;3.28;1.55;;;17.30;53.70;;;;;;6018100;29;20107;-70
2023/03/31 05:27:43;;;;;;;8.43;2.00;;;17.20;53.50;;;;;;6004029;29;20055;-70
2023/03/31 05:30:43;;;;;;;6.60;2.00;;;17.20;53.40;;;;;;5989997;29;20375;-70
2023/03/31 05:33:44;;;;;;;6.75;1.63;;;17.30;53.30;;;;;;5981666;29;20160;-70
2023/03/31 05:36:47;;;;;;;6.63;2.20;;;17.20;53.20;;;;;;5981981;29;20069;-70
2023/03/31 05:39:47;;;;;;;11.43;2.45;;;17.20;53.20;;;;;;6031391;29;20042;-70
2023/03/31 05:42:48;;;;;;;12.85;1.75;;;17.20;53.30;;;;;;6004418;29;20034;-70
2023/03/31 05:45:49;;;;;;;8.15;1.77;;;17.10;53.30;;;;;;6017201;29;20699;-70
2023/03/31 05:48:50;;;;;;;9.52;1.70;;;17.10;53.40;;;;;;5981396;29;20039;-72
2023/03/31 05:51:52;;;;;;;5.82;2.17;;;17.10;53.50;;;;;;5994897;29;20523;-71
2023/03/31 05:54:52;;;;;;;6.03;1.65;;;17.10;53.50;;;;;;5981595;29;20432;-69
2023/03/31 05:57:53;;;;;;;11.18;2.00;;;17.00;53.60;;;;;;5982231;29;20126;-69
2023/03/31 06:01:09;;;;;;;7.25;1.90;;;17.00;53.70;;;;;;5980295;29;20100;-69
2023/03/31 06:04:10;;;;;;;20.95;1.77;;;17.00;53.70;;;;;;5981529;29;20046;-68
2023/03/31 06:07:12;;;;;;;14.60;2.25;;;17.00;53.70;;;;;;5979513;29;20433;-72
2023/03/31 06:10:13;;;;;;;7.85;1.83;;;17.00;53.70;;;;;;5981000;29;20563;-71
2023/03/31 06:13:13;;;;;;;5.28;2.10;;;17.10;53.80;;;;;;5982838;29;20091;-71
2023/03/31 06:16:16;;;;;;;9.15;1.58;;;17.10;53.70;;;;;;5984340;29;20030;-73
2023/03/31 06:19:17;;;;;;;13.82;2.33;;;17.10;53.80;;;;;;5983960;29;20022;-72
2023/03/31 06:22:18;;;;;;;7.90;1.95;;;17.10;53.70;;;;;;5985784;29;20542;-72
2023/03/31 06:25:18;;;;;;;11.43;2.65;;;17.10;53.70;;;;;;5983457;29;20035;-72
2023/03/31 06:28:20;;;;;;;11.55;2.25;;;17.10;53.70;;;;;;5984476;29;20117;-71
2023/03/31 06:31:23;;;;;;;16.73;2.67;;;17.20;53.70;;;;;;5983178;29;20034;-72
2023/03/31 06:34:24;;;;;;;7.00;2.08;;;17.20;53.70;;;;;;5983272;29;20045;-72
2023/03/31 06:37:25;;;;;;;9.70;2.08;;;17.20;53.70;;;;;;5987066;29;20030;-71
2023/03/31 06:40:26;;;;;;;9.55;2.40;;;17.20;53.80;;;;;;6004117;29;20410;-72
2023/03/31 06:43:27;;;;;;;13.18;2.80;;;17.20;53.80;;;;;;5984456;29;20030;-71
2023/03/31 06:46:28;;;;;;;10.55;2.63;;;17.20;53.80;;;;;;5984465;29;20034;-72
2023/03/31 06:49:29;;;;;;;10.02;1.95;;;17.20;53.90;;;;;;5984320;29;20034;-72
2023/03/31 06:52:31;;;;;;;10.88;2.22;;;17.20;53.90;;;;;;5984278;29;20022;-72
2023/03/31 06:55:32;;;;;;;9.50;2.20;;;17.20;54.10;;;;;;5982682;29;20102;-71
2023/03/31 06:58:33;;;;;;;12.02;2.25;;;17.20;54.30;;;;;;5983649;29;20034;-72
2023/03/31 07:01:36;;;;;;;11.52;2.53;;;17.20;54.70;;;;;;5982275;29;20095;-72
2023/03/31 07:04:37;;;;;;;7.10;2.75;;;17.10;55.00;;;;;;5997462;29;20087;-72
2023/03/31 07:07:37;;;;;;;8.30;2.30;;;17.10;55.20;;;;;;5982024;29;20467;-72
2023/03/31 07:10:38;;;;;;;12.20;3.20;;;17.10;55.40;;;;;;6012979;29;20034;-71
2023/03/31 07:13:39;;;;;;;4.60;2.83;;;17.10;55.60;;;;;;5983648;29;20026;-72
2023/03/31 07:16:40;;;;;;;10.23;2.70;;;17.10;55.80;;;;;;5982730;29;20067;-72
2023/03/31 07:19:46;;;;;;;12.77;3.22;;;17.10;56.00;;;;;;5982252;29;20058;-71
2023/03/31 07:22:48;;;;;;;5.10;2.50;;;17.10;56.10;;;;;;6012590;29;20596;-72
2023/03/31 07:25:49;;;;;;;12.88;3.15;;;17.00;56.30;;;;;;5983375;29;20107;-71
2023/03/31 07:28:50;;;;;;;13.60;3.17;;;17.00;56.70;;;;;;5997463;29;20057;-73
2023/03/31 07:31:51;;;;;;;11.18;2.78;;;16.90;56.80;;;;;;5983552;29;20062;-72
2023/03/31 07:34:52;;;;;;;9.93;3.13;;;16.90;57.10;;;;;;5982384;29;20069;-71
2023/03/31 07:37:53;;;;;;;10.00;2.95;;;16.80;57.30;;;;;;5990367;29;20432;-71
2023/03/31 07:40:54;;;;;;;18.50;4.25;;;16.80;57.40;;;;;;6006465;29;20052;-72
2023/03/31 07:43:55;;;;;;;8.30;3.15;;;16.80;57.70;;;;;;6004105;29;20433;-70
2023/03/31 07:46:57;;;;;;;14.13;4.15;;;16.70;57.90;;;;;;5983708;29;20031;-71
2023/03/31 07:49:58;;;;;;;17.13;4.28;;;16.70;58.10;;;;;;5983288;29;20022;-72
2023/03/31 07:52:59;;;;;;;11.43;4.25;;;16.70;58.20;;;;;;5982700;29;20131;-71
2023/03/31 07:56:00;;;;;;;15.07;4.07;;;16.70;58.20;;;;;;6012286;29;20422;-73
2023/03/31 07:59:01;;;;;;;18.98;4.22;;;16.70;58.20;;;;;;5986225;29;20155;-70
2023/03/31 08:02:02;;;;;;;15.20;4.20;;;16.70;58.20;;;;;;5987888;29;20433;-72
2023/03/31 08:05:05;;;;;;;15.50;5.10;;;16.80;58.40;;;;;;6000088;29;20033;-71
2023/03/31 08:08:05;;;;;;;18.13;4.55;;;16.80;58.60;;;;;;6002428;29;20183;-72
2023/03/31 08:11:06;;;;;;;13.98;4.50;;;16.70;59.00;;;;;;5990298;29;20037;-73
2023/03/31 08:14:07;;;;;;;20.50;5.32;;;16.70;59.30;;;;;;6004800;29;20377;-72
2023/03/31 08:17:09;;;;;;;21.23;5.10;;;16.70;59.60;;;;;;6033868;29;20108;-72
2023/03/31 08:20:11;;;;;;;13.93;5.15;;;16.80;59.50;;;;;;5985264;29;20513;-71
2023/03/31 08:23:12;;;;;;;15.35;5.95;;;17.00;59.30;;;;;;5982655;29;20097;-72
2023/03/31 08:26:20;;;;;;;13.32;5.95;;;17.20;59.00;;;;;;6011804;29;20042;-70
2023/03/31 08:29:21;;;;;;;13.13;5.95;;;17.40;58.80;;;;;;5982666;29;20457;-71
2023/03/31 08:32:23;;;;;;;28.35;6.03;;;17.50;58.50;;;;;;5984084;29;20023;-73
2023/03/31 08:35:23;;;;;;;20.15;7.50;;;17.60;58.30;;;;;;5983267;29;20205;-72
2023/03/31 08:38:26;;;;;;;15.73;6.18;;;17.70;58.10;;;;;;5993243;29;20033;-70
2023/03/31 08:41:33;;;;;;;18.17;6.55;;;17.70;57.60;;;;;;6005188;29;20096;-71
2023/03/31 08:44:35;;;;;;;20.30;6.35;;;17.80;57.40;;;;;;5998071;29;20034;-73
2023/03/31 08:47:38;;;;;;;17.15;6.57;;;18.00;57.30;;;;;;5982095;29;20030;-71
2023/03/31 08:50:45;;;;;;;14.30;6.35;;;18.10;56.90;;;;;;6011433;29;20121;-72
2023/03/31 08:53:52;;;;;;;14.15;6.15;;;18.20;56.70;;;;;;5980780;29;20035;-72
2023/03/31 08:56:53;;;;;;;13.68;5.88;;;18.30;56.30;;;;;;5981891;29;20511;-71
2023/03/31 08:59:57;;;;;;;12.13;5.10;;;18.40;56.20;;;;;;5981623;29;20034;-71
2023/03/31 09:03:21;;;;;;;21.02;5.90;;;18.40;56.10;;;;;;5982108;29;20031;-74
2023/03/31 09:06:38;;;;;;;19.17;7.22;;;18.50;55.80;;;;;;5981329;29;20083;-71
2023/03/31 09:09:58;;;;;;;14.77;5.88;;;18.50;55.80;;;;;;5979623;29;20145;-71
2023/03/31 09:13:09;;;;;;;14.27;6.15;;;18.50;56.00;;;;;;6031620;29;20513;-70
2023/03/31 09:16:14;;;;;;;19.77;6.97;;;18.50;56.10;;;;;;5986554;29;20051;-71
2023/03/31 09:19:49;;;;;;;15.10;6.55;;;18.40;56.10;;;;;;5981552;29;20030;-71
2023/03/31 09:23:17;;;;;;;16.98;6.43;;;18.30;56.20;;;;;;5985149;29;20082;-71
2023/03/31 09:26:53;;;;;;;18.92;6.75;;;18.30;56.40;;;;;;6000652;29;20093;-70
2023/03/31 09:30:09;;;;;;;19.02;6.97;;;18.20;56.40;;;;;;6000558;29;20046;-71
2023/03/31 09:33:14;;;;;;;19.48;8.43;;;18.20;56.50;;;;;;6001017;29;20053;-71
2023/03/31 09:36:22;;;;;;;13.98;7.00;;;18.30;56.60;;;;;;6000634;29;20029;-71
2023/03/31 09:39:23;;;;;;;19.77;8.48;;;18.30;56.70;;;;;;6000621;29;20397;-71
2023/03/31 09:42:25;;;;;;;28.50;7.43;;;18.40;56.50;;;;;;6001420;29;20050;-70
2023/03/31 09:45:26;;;;;;;24.75;7.95;;;18.60;56.50;;;;;;6002219;29;20045;-71
2023/03/31 09:48:34;;;;;;;19.10;7.38;;;18.60;56.40;;;;;;6002672;29;20390;-73
2023/03/31 09:51:40;;;;;;;22.23;7.20;;;18.70;56.40;;;;;;6006003;29;20030;-71
2023/03/31 09:54:50;;;;;;;24.13;7.28;;;19.00;56.40;;;;;;6005943;29;20089;-71
2023/03/31 09:57:51;;;;;;;16.95;8.27;;;19.20;56.30;;;;;;5982503;29;20035;-72
2023/03/31 10:01:12;;;;;;;13.10;6.53;;;19.40;55.70;;;;;;5960147;29;20131;-72
2023/03/31 10:04:26;;;;;;;21.38;8.85;;;19.50;55.30;;;;;;5960175;29;20045;-72
2023/03/31 10:07:27;;;;;;;22.42;9.35;;;19.70;55.30;;;;;;5975354;29;20043;-72
2023/03/31 10:10:32;;;;;;;21.05;7.63;;;19.80;55.10;;;;;;5967512;29;20464;-70
2023/03/31 10:13:48;;;;;;;19.52;8.10;;;20.00;55.10;;;;;;6021590;29;20058;-71
2023/03/31 10:16:56;;;;;;;17.70;7.78;;;20.10;55.10;;;;;;6036978;29;20464;-72
2023/03/31 10:20:06;;;;;;;19.15;7.35;;;20.20;55.10;;;;;;6007444;29;20380;-71
2023/03/31 10:23:27;;;;;;;29.17;7.85;;;20.50;54.90;;;;;;6006127;29;20038;-72
2023/03/31 10:26:29;;;;;;;28.17;8.23;;;20.60;54.70;;;;;;6010806;29;20115;-71
2023/03/31 10:29:33;;;;;;;17.55;6.93;;;20.70;54.30;;;;;;6013555;29;20050;-71
2023/03/31 10:32:41;;;;;;;20.77;7.22;;;20.80;53.90;;;;;;5982930;29;20099;-71
2023/03/31 10:35:42;;;;;;;15.77;6.82;;;21.00;53.20;;;;;;6013656;29;20079;-70
2023/03/31 10:38:45;;;;;;;17.15;7.40;;;21.10;52.80;;;;;;5996767;29;20034;-72
2023/03/31 10:41:51;;;;;;;15.57;6.68;;;21.30;52.70;;;;;;6004656;29;20150;-71
2023/03/31 10:45:30;;;;;;;16.42;7.63;;;21.60;52.00;;;;;;5989679;29;20038;-74
2023/03/31 10:48:40;;;;;;;21.02;7.50;;;21.90;51.10;;;;;;5975743;29;20066;-72
2023/03/31 10:51:52;;;;;;;16.05;6.70;;;22.40;50.30;;;;;;5991426;29;20117;-71
2023/03/31 10:54:57;;;;;;;13.43;5.93;;;22.90;49.10;;;;;;5963104;29;20031;-72
2023/03/31 10:58:31;;;;;;;13.30;6.43;;;23.30;47.20;;;;;;5984287;29;20077;-71
2023/03/31 11:01:46;;;;;;;13.88;5.60;;;23.60;45.20;;;;;;5982268;29;20070;-71
2023/03/31 11:05:02;;;;;;;12.68;4.95;;;24.00;44.30;;;;;;5984181;29;20041;-71
2023/03/31 11:08:12;;;;;;;12.88;5.47;;;24.20;42.30;;;;;;5983595;29;20475;-73
2023/03/31 11:11:45;;;;;;;11.50;5.32;;;24.50;40.00;;;;;;5991495;29;20022;-71
2023/03/31 11:15:04;;;;;;;9.90;4.50;;;24.80;39.10;;;;;;5999217;29;20117;-70
2023/03/31 11:18:24;;;;;;;10.85;5.20;;;25.10;37.90;;;;;;6006261;29;20026;-72
2023/03/31 11:21:46;;;;;;;10.82;4.80;;;25.40;36.50;;;;;;6005914;29;20061;-72
2023/03/31 11:25:07;;;;;;;10.23;5.32;;;25.70;35.40;;;;;;6013307;29;20026;-71
2023/03/31 11:28:38;;;;;;;11.25;4.95;;;25.90;34.30;;;;;;6013449;29;20042;-72
2023/03/31 11:31:42;;;;;;;12.73;4.68;;;26.00;32.90;;;;;;6013107;29;20034;-71
2023/03/31 11:35:20;;;;;;;10.48;5.20;;;26.00;31.70;;;;;;5983395;29;20030;-73
2023/03/31 11:38:39;;;;;;;8.43;4.20;;;26.10;31.70;;;;;;5993949;29;20179;-72
2023/03/31 11:41:56;;;;;;;10.27;4.82;;;26.10;29.30;;;;;;6005893;29;20038;-72
2023/03/31 11:45:11;;;;;;;18.10;5.47;;;25.80;28.90;;;;;;5987361;29;20089;-71
2023/03/31 11:48:21;;;;;;;11.35;5.03;;;25.70;29.50;;;;;;5960096;29;20158;-72
2023/03/31 11:51:27;;;;;;;13.85;4.70;;;25.80;30.00;;;;;;5960006;29;20145;-73
2023/03/31 11:54:34;;;;;;;10.95;4.50;;;26.10;29.60;;;;;;5960314;29;20062;-73
2023/03/31 11:57:39;;;;;;;11.83;5.00;;;26.30;29.30;;;;;;5981251;29;20098;-71
2023/03/31 12:00:50;;;;;;;11.77;5.00;;;26.50;28.40;;;;;;5982224;29;20034;-71
2023/03/31 12:04:05;;;;;;;7.70;4.15;;;26.80;27.80;;;;;;5981949;29;20566;-71
2023/03/31 12:07:29;;;;;;;10.10;3.83;;;26.60;26.80;;;;;;5995367;29;20057;-71
2023/03/31 12:10:40;;;;;;;7.85;3.53;;;26.20;25.00;;;;;;5983479;29;20038;-71
2023/03/31 12:13:54;;;;;;;7.72;3.88;;;25.70;25.00;;;;;;6003264;29;20022;-71
2023/03/31 12:17:13;;;;;;;5.63;3.05;;;25.40;25.20;;;;;;6004893;29;20118;-74
2023/03/31 12:20:30;;;;;;;8.55;4.07;;;25.40;24.70;;;;;;5984966;29;20045;-74
2023/03/31 12:23:39;;;;;;;11.60;3.40;;;25.20;25.00;;;;;;6011390;29;20185;-75
2023/03/31 12:26:51;;;;;;;6.97;3.13;;;25.20;25.30;;;;;;6012640;29;20086;-73
2023/03/31 12:30:00;;;;;;;10.75;3.75;;;25.20;25.10;;;;;;6010960;29;20321;-72
2023/03/31 12:33:15;;;;;;;6.25;3.63;;;25.20;24.20;;;;;;6011731;29;20031;-71
2023/03/31 12:36:24;;;;;;;5.78;3.40;;;25.70;24.00;;;;;;6011125;29;20110;-72
2023/03/31 12:39:37;;;;;;;7.65;3.55;;;26.60;23.20;;;;;;5999793;29;20037;-70
2023/03/31 12:42:49;;;;;;;6.28;3.30;;;26.50;22.90;;;;;;6002892;29;20455;-71
2023/03/31 12:46:19;;;;;;;10.25;3.67;;;26.10;22.50;;;;;;5979344;29;20402;-72
2023/03/31 12:50:01;;;;;;;8.13;3.65;;;26.00;22.70;;;;;;5942320;29;20163;-73
2023/03/31 12:53:31;;;;;;;6.78;3.78;;;26.70;22.10;;;;;;5984409;29;20039;-74
2023/03/31 12:57:00;;;;;;;5.00;3.17;;;27.10;21.60;;;;;;6000669;29;20182;-72
2023/03/31 13:00:17;;;;;;;8.55;3.30;;;26.40;21.50;;;;;;6000285;29;20042;-73
2023/03/31 13:03:33;;;;;;;6.18;3.67;;;25.80;22.50;;;;;;6000836;29;20063;-72
2023/03/31 13:06:37;;;;;;;16.10;4.07;;;25.40;23.50;;;;;;5985596;29;20050;-74
2023/03/31 13:09:51;;;;;;;6.90;3.45;;;25.80;23.20;;;;;;5986999;29;20511;-73
2023/03/31 13:13:13;;;;;;;9.18;3.63;;;25.90;23.20;;;;;;5987012;29;20528;-72
2023/03/31 13:16:19;;;;;;;7.15;2.97;;;26.00;23.40;;;;;;6000678;29;20038;-72
2023/03/31 13:19:34;;;;;;;7.82;3.45;;;27.10;22.90;;;;;;5985354;29;20376;-73
2023/03/31 13:22:39;;;;;;;7.45;3.58;;;28.50;21.90;;;;;;5987344;29;20105;-73
2023/03/31 13:25:57;;;;;;;8.55;3.67;;;28.50;21.70;;;;;;5989895;29;20038;-73
2023/03/31 13:29:13;;;;;;;6.63;2.72;;;28.10;22.10;;;;;;6005154;29;20377;-74
2023/03/31 13:32:25;;;;;;;3.83;2.70;;;27.30;22.30;;;;;;5986675;29;20046;-73
2023/03/31 13:35:30;;;;;;;9.05;3.40;;;26.50;22.60;;;;;;5986733;29;20707;-74
2023/03/31 13:38:50;;;;;;;10.13;3.85;;;26.00;23.10;;;;;;5986120;29;20151;-73
2023/03/31 13:42:12;;;;;;;7.35;3.17;;;25.50;23.70;;;;;;5986289;29;20042;-73
2023/03/31 13:45:19;;;;;;;9.85;3.55;;;25.30;24.10;;;;;;5992866;29;20159;-72
2023/03/31 13:48:46;;;;;;;10.93;3.15;;;25.10;24.10;;;;;;5992450;29;20043;-73
2023/03/31 13:52:02;;;;;;;6.15;2.78;;;24.90;24.20;;;;;;5963165;29;20057;-73
2023/03/31 13:55:12;;;;;;;9.18;3.20;;;24.80;24.10;;;;;;5994048;29;20031;-74
2023/03/31 13:58:28;;;;;;;7.80;3.10;;;24.60;24.40;;;;;;5976850;29;20035;-73
2023/03/31 14:02:01;;;;;;;7.55;3.47;;;24.40;24.50;;;;;;5992804;29;20138;-73
2023/03/31 14:05:28;;;;;;;5.15;2.92;;;24.20;24.80;;;;;;5961938;29;20039;-71
2023/03/31 14:08:47;;;;;;;9.07;3.00;;;24.00;24.80;;;;;;5991437;29;20066;-72
2023/03/31 14:11:49;;;;;;;6.50;2.65;;;23.80;24.80;;;;;;5987460;29;20058;-73
2023/03/31 14:14:53;;;;;;;8.30;2.92;;;23.50;25.00;;;;;;6007707;29;20033;-71
2023/03/31 14:17:54;;;;;;;13.15;2.80;;;23.10;26.30;;;;;;6007772;29;20037;-73
2023/03/31 14:21:12;;;;;;;5.07;2.25;;;22.70;27.80;;;;;;6008745;29;20065;-72
2023/03/31 14:24:43;;;;;;;6.72;2.72;;;22.20;29.50;;;;;;6022807;29;20060;-73
2023/03/31 14:28:19;;;;;;;7.82;2.00;;;21.70;31.00;;;;;;6007095;29;20127;-72
2023/03/31 14:31:44;;;;;;;6.80;1.88;;;20.90;33.60;;;;;;5982876;29;20098;-72
2023/03/31 14:35:04;;;;;;;8.15;1.77;;;20.20;35.40;;;;;;5981595;29;20416;-72
2023/03/31 14:38:12;;;;;;;4.07;1.10;;;19.70;37.90;;;;;;5974138;29;20160;-72
2023/03/31 14:41:28;;;;;;;6.22;1.63;;;19.10;39.10;;;;;;5959562;29;20054;-73
2023/03/31 14:44:29;;;;;;;3.50;1.58;;;18.50;41.40;;;;;;5974363;29;20042;-73
2023/03/31 14:47:31;;;;;;;1.92;1.33;;;18.00;43.60;;;;;;5959119;29;20035;-73
2023/03/31 14:50:35;;;;;;;5.43;1.65;;;17.70;43.70;;;;;;5974261;29;20067;-73
2023/03/31 14:53:36;;;;;;;3.72;1.65;;;17.60;43.90;;;;;;5958928;29;20060;-72
2023/03/31 14:56:40;;;;;;;6.78;1.90;;;17.80;43.70;;;;;;5974352;29;20069;-72
2023/03/31 14:59:42;;;;;;;5.40;2.03;;;18.10;43.70;;;;;;5958150;29;20477;-72
2023/03/31 15:02:45;;;;;;;10.38;2.25;;;18.30;42.90;;;;;;5958860;29;20536;-73
2023/03/31 15:05:47;;;;;;;5.05;1.60;;;18.50;42.40;;;;;;5958139;29;20307;-71
2023/03/31 15:08:48;;;;;;;5.40;1.75;;;18.80;41.90;;;;;;5968877;29;20404;-72
2023/03/31 15:11:56;;;;;;;11.32;1.88;;;19.10;41.30;;;;;;5996268;29;20386;-72
2023/03/31 15:15:03;;;;;;;6.82;1.88;;;19.40;40.30;;;;;;6007042;29;20041;-71
2023/03/31 15:18:04;;;;;;;6.72;1.00;;;19.70;39.70;;;;;;6006445;29;20065;-71
2023/03/31 15:21:05;;;;;;;4.50;1.40;;;19.90;38.00;;;;;;6006728;29;20140;-71
2023/03/31 15:24:06;;;;;;;3.22;1.10;;;20.00;37.50;;;;;;6005518;29;20030;-72
2023/03/31 15:27:46;;;;;;;3.00;1.13;;;19.70;38.20;;;;;;6005205;29;20129;-73
2023/03/31 15:30:49;;;;;;;4.68;1.20;;;19.40;38.10;;;;;;6036031;29;20113;-73
2023/03/31 15:33:50;;;;;;;4.40;1.80;;;19.30;38.00;;;;;;6004968;29;20056;-72
2023/03/31 15:36:55;;;;;;;2.28;1.00;;;19.50;37.90;;;;;;6004862;29;20037;-73
2023/03/31 15:39:58;;;;;;;4.07;1.35;;;19.70;37.60;;;;;;5998691;29;20037;-73
2023/03/31 15:43:07;;;;;;;5.13;1.13;;;19.90;37.20;;;;;;6012463;29;20057;-72
2023/03/31 15:46:14;;;;;;;5.07;1.08;;;20.00;36.50;;;;;;5983083;29;20034;-71
2023/03/31 15:49:21;;;;;;;3.13;1.25;;;20.10;36.30;;;;;;5982571;29;20251;-73
2023/03/31 15:52:34;;;;;;;2.95;1.10;;;20.20;36.20;;;;;;5981653;29;20070;-72
2023/03/31 15:55:41;;;;;;;3.22;1.00;;;20.20;35.40;;;;;;6011933;29;20117;-72
2023/03/31 15:58:56;;;;;;;3.55;1.60;;;20.20;34.80;;;;;;5981094;29;20441;-69
2023/03/31 16:01:58;;;;;;;6.47;0.90;;;20.20;35.00;;;;;;5981207;29;20174;-72
2023/03/31 16:05:00;;;;;;;7.18;1.35;;;20.20;35.10;;;;;;5981312;29;20095;-71
2023/03/31 16:08:02;;;;;;;3.92;1.42;;;20.30;35.50;;;;;;5982440;29;20079;-71
2023/03/31 16:11:12;;;;;;;4.43;1.52;;;20.20;36.00;;;;;;5987349;29;20054;-73